Bezoek ook deze websites:

Mijn andere website

Weerstation Noordbergum

Weerstation in Leuven


U vindt ons ook hier:

Weather Underground


METAR rapporten vliegvelden

   
EHGG - Groningen/Eelde, Netherlands
Afstand tot: ONO 18 km
Gewijzigd: 26-01-2020 06:25
Nevel, Bewolking  
Nevel, Bewolking  
   Wind: ZZO 14.8 km/h
Wind: ZZO 14.8 km/h
Temperatuur: 1°C
Voelt als: -3°C
Dauwpunt: 1°C
Vochtigheid: 100%
Barometer: 1016 hPa
Bewolking: Bewolking
Zicht: 1 km
Bewolking: Bewolking 100 ft
EHGG 260525Z AUTO 16008KT 130V190 1200 R23/1800D BR OVC001 01/01 Q1016 BECMG 0600 FG VV000
EHLW - Leeuwarden Rnlaf, Netherlands
Afstand tot: WNW 45 km
Gewijzigd: 26-01-2020 06:25
Mist, Bewolking  
Mist, Bewolking  
   Wind: Zuiden 20.4 km/h
Wind: Zuiden 20.4 km/h
Temperatuur: 1°C
Voelt als: -4°C
Dauwpunt: 1°C
Vochtigheid: 100%
Barometer: 1015 hPa
Bewolking: Bewolking
Zicht: 1 km
Bewolking: Bewolking
EHLW 260525Z AUTO 17011KT 120V190 0750 FG OVC000 01/01 Q1015 RED
EHVL - Vlieland Island, Netherlands
Afstand tot: WNW 98 km
Gewijzigd: 26-01-2020 06:25
Mist, Bewolking  
Mist, Bewolking  
   Wind: Zuiden 25.9 km/h
Wind: Zuiden 25.9 km/h
Temperatuur: 2°C
Voelt als: -3°C
Dauwpunt: 2°C
Vochtigheid: 100%
Barometer: 1014 hPa
Bewolking: Bewolking
Zicht: 1 km
Bewolking: Bewolking
EHVL 260525Z AUTO 18014KT 0750 FG VV000 02/02 Q1014 RED
EHKD - De Kooy (navy), Netherlands
Afstand tot: W 106 km
Gewijzigd: 26-01-2020 06:29
Nevel, Bewolking  
Nevel, Bewolking  
   Wind: Zuiden 18.5 km/h
Wind: Zuiden 18.5 km/h
Temperatuur: 2°C
Voelt als: -2°C
Dauwpunt: 2°C
Vochtigheid: 100%
Barometer: 1014 hPa
Bewolking: Bewolking
Zicht: 1 km
Bewolking: Bewolking 100 ft
EHKD 260529Z AUTO 18010KT 150V210 1000 BR OVC001 02/02 Q1014 RED 18010KT 600 FG OVC001
EHDL - Deelen Rnlafb, Netherlands
Afstand tot: ZZW 112 km
Gewijzigd: 26-01-2020 06:25
Mist, Bewolking  
Mist, Bewolking  
   Wind: ZO 9.3 km/h
Wind: ZO 9.3 km/h
Temperatuur: 1°C
Voelt als: -2°C
Dauwpunt: 1°C
Vochtigheid: 100%
Barometer: 1016 hPa
Bewolking: Bewolking
Zicht: 1 km
Bewolking: Bewolking
EHDL 260525Z AUTO 14005KT 100V210 0500 FG VV000 01/01 Q1016 RED
EHAM - Amsterdam/Schiph, Netherlands
Afstand tot: ZW 132 km
Gewijzigd: 26-01-2020 06:25
Partial, Mist, Nevel, Grotendeels bewolkt  
Partial, Mist, Nevel, Grotendeels bewolkt  
   Wind: ZZO 20.4 km/h
Wind: ZZO 20.4 km/h
Temperatuur: 2°C
Voelt als: -3°C
Dauwpunt: 2°C
Vochtigheid: 100%
Barometer: 1015 hPa
Bewolking: Grotendeels bewolkt
Zicht: 1 km
Bewolking: Grotendeels bewolkt 100 ft
EHAM 260525Z 15011KT 1400 0900SE R18C/P2000N R27/P2000U R18R/P2000N R06/P2000N PRFG BR BKN001 02/02 Q1015 NOSIG

Script ontwikkeld door  Saratoga-weather.org Aangepast voor de template door  Weerstation Leuven

Apparatuur in gebruik:

Weerstation
Davis VP2

Weerprogramma
Meteobridge

Weercomputer
TP-link TL-MR3020

Webleverancier
Versio

Davis VP2

Meteobridge

TP-link TL-MR3020

Versio